createdAt,value
2022-09-15T00:01:02.017Z,80.39
2022-09-15T00:03:28.658Z,81.13
2022-09-15T00:05:55.363Z,81.62
2022-09-15T00:08:23.551Z,81.79
2022-09-15T00:11:11.675Z,81.96
2022-09-15T00:13:39.720Z,82.13
2022-09-15T00:16:08.295Z,82.25
2022-09-15T00:18:35.882Z,82.99
2022-09-15T00:21:10.661Z,82.23
2022-09-15T00:23:38.069Z,81.20
2022-09-15T00:26:12.648Z,80.85
2022-09-15T00:28:39.788Z,80.48
2022-09-15T00:31:09.420Z,81.25
2022-09-15T00:33:36.447Z,81.67
2022-09-15T00:36:06.704Z,81.40
2022-09-15T00:38:34.677Z,80.86
2022-09-15T00:41:02.155Z,80.94
2022-09-15T00:43:53.232Z,80.65
2022-09-15T00:46:25.551Z,82.69
2022-09-15T00:49:01.005Z,83.77
2022-09-15T00:52:00.016Z,83.99
2022-09-15T00:54:30.975Z,83.92
2022-09-15T00:57:01.987Z,85.74
2022-09-15T00:59:32.018Z,85.10
2022-09-15T01:02:12.184Z,85.63
2022-09-15T01:04:39.149Z,86.27
2022-09-15T01:07:07.810Z,86.43
2022-09-15T01:09:45.117Z,85.48
2022-09-15T01:12:11.832Z,84.66
2022-09-15T01:14:38.760Z,84.57
2022-09-15T01:17:11.655Z,84.62
2022-09-15T01:20:07.532Z,84.05
2022-09-15T01:23:01.925Z,84.34
2022-09-15T01:25:51.950Z,84.33
2022-09-15T01:29:04.531Z,84.65
2022-09-15T01:31:37.010Z,85.32
2022-09-15T01:34:15.022Z,85.87
2022-09-15T01:36:53.092Z,85.55
2022-09-15T01:39:32.255Z,85.21
2022-09-15T01:42:12.628Z,85.76
2022-09-15T01:44:45.207Z,84.71
2022-09-15T01:47:15.991Z,83.53
2022-09-15T01:49:54.811Z,83.55
2022-09-15T01:52:23.506Z,84.12
2022-09-15T01:54:57.331Z,85.18
2022-09-15T01:57:24.279Z,85.04
2022-09-15T01:59:54.095Z,85.35
2022-09-15T02:02:22.945Z,86.76
2022-09-15T02:04:54.879Z,87.30
2022-09-15T02:07:40.212Z,86.79
2022-09-15T02:10:26.997Z,86.96
2022-09-15T02:13:06.187Z,86.28
2022-09-15T02:15:48.076Z,88.05
2022-09-15T02:18:30.561Z,87.51
2022-09-15T02:21:10.381Z,88.09
2022-09-15T02:23:43.727Z,87.96
2022-09-15T02:26:16.864Z,86.58
2022-09-15T02:28:46.585Z,86.59
2022-09-15T02:31:16.476Z,86.47
2022-09-15T02:33:49.713Z,85.79
2022-09-15T02:36:19.881Z,85.10
2022-09-15T02:38:54.251Z,85.06
2022-09-15T02:41:21.282Z,84.79
2022-09-15T02:43:49.320Z,86.00
2022-09-15T02:46:18.784Z,85.70
2022-09-15T02:48:45.489Z,85.44
2022-09-15T02:51:13.251Z,85.62
2022-09-15T02:53:40.120Z,85.73
2022-09-15T02:56:07.208Z,85.36
2022-09-15T02:58:34.792Z,88.04
2022-09-15T03:01:04.223Z,88.16
2022-09-15T03:03:32.460Z,87.93
2022-09-15T03:06:16.510Z,87.68
2022-09-15T03:08:55.384Z,87.86
2022-09-15T03:11:24.173Z,88.18
2022-09-15T03:13:56.087Z,87.65
2022-09-15T03:16:23.271Z,88.46
2022-09-15T03:18:49.995Z,88.17
2022-09-15T03:21:18.100Z,87.44
2022-09-15T03:23:45.551Z,87.36
2022-09-15T03:26:12.681Z,90.88
2022-09-15T03:28:40.499Z,94.64
2022-09-15T03:31:08.650Z,93.44
2022-09-15T03:33:36.162Z,93.14
2022-09-15T03:36:03.268Z,92.98
2022-09-15T03:38:30.369Z,92.61
2022-09-15T03:41:08.671Z,92.81
2022-09-15T03:43:36.507Z,92.70
2022-09-15T03:46:06.586Z,91.54
2022-09-15T03:48:35.527Z,92.19
2022-09-15T03:51:03.972Z,91.23
2022-09-15T03:53:39.236Z,90.89
2022-09-15T03:56:08.793Z,90.03
2022-09-15T03:58:35.429Z,89.75
2022-09-15T04:01:02.064Z,88.66
2022-09-15T04:03:28.648Z,88.64
2022-09-15T04:05:55.259Z,88.78
2022-09-15T04:08:21.804Z,87.63
2022-09-15T04:10:48.409Z,86.95
2022-09-15T04:13:15.023Z,87.92
2022-09-15T04:15:41.595Z,87.13
2022-09-15T04:18:08.845Z,86.35
2022-09-15T04:20:39.347Z,86.87
2022-09-15T04:23:06.284Z,86.62
2022-09-15T04:25:32.874Z,86.28
2022-09-15T04:27:59.657Z,86.86
2022-09-15T04:30:26.306Z,86.21
2022-09-15T04:32:53.978Z,85.34
2022-09-15T04:35:21.965Z,85.53
2022-09-15T04:37:48.706Z,85.04
2022-09-15T04:40:15.599Z,84.71
2022-09-15T04:42:42.203Z,83.96
2022-09-15T04:45:09.322Z,83.71
2022-09-15T04:47:35.958Z,83.50
2022-09-15T04:50:02.618Z,83.34
2022-09-15T04:52:29.245Z,82.99
2022-09-15T04:54:55.874Z,82.65
2022-09-15T04:57:22.462Z,83.72
2022-09-15T04:59:49.023Z,83.23
2022-09-15T05:02:15.703Z,83.33
2022-09-15T05:04:42.390Z,82.65
2022-09-15T05:07:09.027Z,81.48
2022-09-15T05:09:35.622Z,80.77
2022-09-15T05:12:02.402Z,80.89
2022-09-15T05:14:28.997Z,80.57
2022-09-15T05:16:55.594Z,79.62
2022-09-15T05:19:22.270Z,78.75
2022-09-15T05:21:48.822Z,78.01
2022-09-15T05:24:15.455Z,77.99
2022-09-15T05:26:42.076Z,77.30
2022-09-15T05:29:08.687Z,75.83
2022-09-15T05:31:35.411Z,75.48
2022-09-15T05:34:04.425Z,75.14
2022-09-15T05:36:31.553Z,74.01
2022-09-15T05:38:58.701Z,74.65
2022-09-15T05:41:27.184Z,73.94
2022-09-15T05:43:55.421Z,72.30
2022-09-15T05:46:22.589Z,71.91
2022-09-15T05:48:49.287Z,72.68
2022-09-15T05:51:15.944Z,69.87
2022-09-15T05:53:42.669Z,69.44
2022-09-15T05:56:14.435Z,68.60
2022-09-15T05:58:42.619Z,67.92
2022-09-15T06:01:14.074Z,66.32
2022-09-15T06:03:41.043Z,65.54
2022-09-15T06:06:08.067Z,64.68
2022-09-15T06:08:37.242Z,63.44
2022-09-15T06:11:06.382Z,62.97
2022-09-15T06:13:33.350Z,62.32
2022-09-15T06:16:07.714Z,62.11
2022-09-15T06:18:37.172Z,60.80
2022-09-15T06:21:09.625Z,60.14
2022-09-15T06:23:37.079Z,59.57
2022-09-15T06:26:09.449Z,58.46
2022-09-15T06:28:36.145Z,57.72
2022-09-15T06:31:03.512Z,58.08
2022-09-15T06:33:30.289Z,58.39
2022-09-15T06:35:57.015Z,57.99
2022-09-15T06:38:23.572Z,57.88
2022-09-15T06:40:59.787Z,59.04
2022-09-15T06:43:26.803Z,57.91
2022-09-15T06:45:53.504Z,56.98
2022-09-15T06:48:24.945Z,56.05
2022-09-15T06:50:55.117Z,55.51
2022-09-15T06:53:21.973Z,54.56
2022-09-15T06:55:48.853Z,52.52
2022-09-15T06:58:15.644Z,52.38
2022-09-15T07:00:43.057Z,51.49
2022-09-15T07:03:09.839Z,51.06
2022-09-15T07:05:36.479Z,50.04
2022-09-15T07:08:03.361Z,49.46
2022-09-15T07:10:29.900Z,49.68
2022-09-15T07:12:56.676Z,47.59
2022-09-15T07:15:25.966Z,47.57
2022-09-15T07:17:52.561Z,47.09
2022-09-15T07:20:19.110Z,47.08
2022-09-15T07:22:45.751Z,45.60
2022-09-15T07:25:12.336Z,45.21
2022-09-15T07:27:38.949Z,44.82
2022-09-15T07:30:08.600Z,44.34
2022-09-15T07:32:35.220Z,43.91
2022-09-15T07:35:02.370Z,43.95
2022-09-15T07:37:29.034Z,44.30
2022-09-15T07:39:55.650Z,43.83
2022-09-15T07:42:22.327Z,43.09
2022-09-15T07:44:48.901Z,43.63
2022-09-15T07:47:15.506Z,43.32
2022-09-15T07:49:43.359Z,43.03
2022-09-15T07:52:10.284Z,43.66
2022-09-15T07:54:36.827Z,43.48
2022-09-15T07:57:03.474Z,43.39
2022-09-15T07:59:30.245Z,44.29
2022-09-15T08:01:56.906Z,44.34
2022-09-15T08:04:23.682Z,44.63
2022-09-15T08:06:50.337Z,43.34
2022-09-15T08:09:17.809Z,42.47
2022-09-15T08:11:44.667Z,42.63
2022-09-15T08:14:11.207Z,41.42
2022-09-15T08:16:38.703Z,40.49
2022-09-15T08:19:05.435Z,40.34
2022-09-15T08:21:32.085Z,40.30
2022-09-15T08:23:59.935Z,40.01
2022-09-15T08:26:28.044Z,40.04
2022-09-15T08:28:54.964Z,40.31
2022-09-15T08:31:24.137Z,39.46
2022-09-15T08:33:53.426Z,38.93
2022-09-15T08:36:20.640Z,39.17
2022-09-15T08:38:47.694Z,38.53
2022-09-15T08:41:37.376Z,38.42
2022-09-15T08:44:25.348Z,38.38
2022-09-15T08:47:07.186Z,37.30
2022-09-15T08:50:00.178Z,37.53
2022-09-15T08:52:50.807Z,37.50
2022-09-15T08:55:52.276Z,37.35
2022-09-15T08:58:25.465Z,37.29
2022-09-15T09:00:57.342Z,37.95
2022-09-15T09:03:38.563Z,37.09
2022-09-15T09:06:20.219Z,36.83
2022-09-15T09:09:05.868Z,37.04
2022-09-15T09:11:40.936Z,36.43
2022-09-15T09:14:14.850Z,35.43
2022-09-15T09:16:59.537Z,34.52
2022-09-15T09:19:46.208Z,35.72
2022-09-15T09:22:20.943Z,34.25
2022-09-15T09:24:55.232Z,34.33
2022-09-15T09:27:43.466Z,33.99
2022-09-15T09:30:17.628Z,32.13
2022-09-15T09:33:22.253Z,32.63
2022-09-15T09:35:53.000Z,32.49
2022-09-15T09:38:30.691Z,33.08
2022-09-15T09:41:01.402Z,32.20
2022-09-15T09:43:30.152Z,32.21
2022-09-15T09:45:56.919Z,32.03
2022-09-15T09:48:27.742Z,32.09
2022-09-15T09:50:55.332Z,31.43
2022-09-15T09:53:25.668Z,31.54
2022-09-15T09:55:55.310Z,31.79
2022-09-15T09:58:25.875Z,31.61
2022-09-15T10:00:53.157Z,31.67
2022-09-15T10:03:23.012Z,30.87
2022-09-15T10:06:01.412Z,30.46
2022-09-15T10:08:28.112Z,30.89
2022-09-15T10:10:58.439Z,30.15
2022-09-15T10:13:25.127Z,30.25
2022-09-15T10:15:59.595Z,30.01
2022-09-15T10:18:33.698Z,29.79
2022-09-15T10:21:03.251Z,29.71
2022-09-15T10:23:31.495Z,29.55
2022-09-15T10:26:16.102Z,28.79
2022-09-15T10:28:43.988Z,28.95
2022-09-15T10:31:13.398Z,29.29
2022-09-15T10:33:42.674Z,28.88
2022-09-15T10:36:18.762Z,29.69
2022-09-15T10:38:48.621Z,29.99
2022-09-15T10:41:28.595Z,29.91
2022-09-15T10:44:33.610Z,29.83
2022-09-15T10:47:12.070Z,29.97
2022-09-15T10:49:38.567Z,30.15
2022-09-15T10:52:17.270Z,30.57
2022-09-15T10:55:05.785Z,30.71
2022-09-15T10:58:07.784Z,29.74
2022-09-15T11:00:59.907Z,29.68
2022-09-15T11:04:13.107Z,29.38
2022-09-15T11:06:55.839Z,29.25
2022-09-15T11:09:34.937Z,28.91
2022-09-15T11:12:30.151Z,29.10
2022-09-15T11:15:18.057Z,28.97
2022-09-15T11:18:04.377Z,29.00
2022-09-15T11:20:49.591Z,29.58
2022-09-15T11:23:32.552Z,29.57
2022-09-15T11:26:06.084Z,29.93
2022-09-15T11:28:49.388Z,29.39
2022-09-15T11:31:22.114Z,29.70
2022-09-15T11:33:55.252Z,29.78
2022-09-15T11:36:49.271Z,28.10
2022-09-15T11:39:24.074Z,26.21
2022-09-15T11:41:56.696Z,26.04
2022-09-15T11:44:32.114Z,25.33
2022-09-15T11:47:25.251Z,25.10
2022-09-15T11:50:20.710Z,24.50
2022-09-15T11:52:57.899Z,25.30
2022-09-15T11:55:36.463Z,25.34
2022-09-15T11:58:09.242Z,25.64
2022-09-15T12:00:44.792Z,25.31
2022-09-15T12:03:32.553Z,25.35
2022-09-15T12:06:28.268Z,25.45
2022-09-15T12:09:11.829Z,25.99
2022-09-15T12:11:44.228Z,25.64
2022-09-15T12:14:17.092Z,25.43
2022-09-15T12:16:44.956Z,25.54
2022-09-15T12:19:19.044Z,26.22
2022-09-15T12:21:56.109Z,26.39
2022-09-15T12:24:38.714Z,26.36
2022-09-15T12:27:05.476Z,26.36
2022-09-15T12:29:42.100Z,25.95
2022-09-15T12:32:20.166Z,25.98
2022-09-15T12:34:58.947Z,25.31
2022-09-15T12:37:52.525Z,25.86
2022-09-15T12:40:33.211Z,25.92
2022-09-15T12:43:12.920Z,25.97
2022-09-15T12:45:42.156Z,26.50
2022-09-15T12:48:20.492Z,26.67
2022-09-15T12:50:57.029Z,27.44
2022-09-15T12:56:10.409Z,27.27
2022-09-15T12:58:46.162Z,27.69
2022-09-15T13:01:19.283Z,27.68
2022-09-15T13:03:46.250Z,27.74
2022-09-15T13:06:29.432Z,28.24
2022-09-15T13:09:01.768Z,28.37
2022-09-15T13:11:34.319Z,28.07
2022-09-15T13:14:04.028Z,28.01
2022-09-15T13:17:08.219Z,27.76
2022-09-15T13:19:41.248Z,28.01
2022-09-15T13:22:10.818Z,28.03
2022-09-15T13:24:46.705Z,28.77
2022-09-15T13:27:17.799Z,28.73
2022-09-15T13:29:52.375Z,29.05
2022-09-15T13:32:41.042Z,28.68
2022-09-15T13:35:45.224Z,28.97
2022-09-15T13:38:50.177Z,28.69
2022-09-15T13:41:33.324Z,28.35
2022-09-15T13:44:29.866Z,27.95
2022-09-15T13:47:08.518Z,28.10
2022-09-15T13:49:59.696Z,26.63
2022-09-15T13:53:03.959Z,25.45
2022-09-15T13:55:42.321Z,25.07
2022-09-15T14:01:07.677Z,26.38
2022-09-15T14:03:39.801Z,26.62
2022-09-15T14:06:20.889Z,26.48
2022-09-15T14:08:52.973Z,26.14
2022-09-15T14:11:30.228Z,26.35
2022-09-15T14:13:59.338Z,26.51
2022-09-15T14:16:52.700Z,26.33
2022-09-15T14:19:35.909Z,26.22
2022-09-15T14:22:20.793Z,26.12
2022-09-15T14:24:47.893Z,27.08
2022-09-15T14:27:29.758Z,27.62
2022-09-15T14:30:01.474Z,27.66
2022-09-15T14:32:38.594Z,28.02
2022-09-15T14:35:07.820Z,28.03
2022-09-15T14:37:34.937Z,28.29
2022-09-15T14:40:16.651Z,28.65
2022-09-15T14:42:43.587Z,28.84
2022-09-15T14:48:15.647Z,28.26
2022-09-15T14:50:44.894Z,28.82
2022-09-15T14:53:18.155Z,28.28
2022-09-15T14:56:08.260Z,28.86
2022-09-15T14:58:47.014Z,28.82
2022-09-15T15:01:27.780Z,29.02
2022-09-15T15:04:10.908Z,29.07
2022-09-15T15:06:43.709Z,28.86
2022-09-15T15:09:24.121Z,29.20
2022-09-15T15:11:56.858Z,29.03
2022-09-15T15:14:24.007Z,29.41
2022-09-15T15:16:56.926Z,29.43
2022-09-15T15:19:42.781Z,29.74
2022-09-15T15:22:12.474Z,30.00
2022-09-15T15:24:48.846Z,30.21
2022-09-15T15:27:33.669Z,30.20
2022-09-15T15:30:30.531Z,29.91
2022-09-15T15:33:03.161Z,30.19
2022-09-15T15:35:31.002Z,30.59
2022-09-15T15:38:06.375Z,31.02
2022-09-15T15:40:35.362Z,31.06
2022-09-15T15:43:13.737Z,31.46
2022-09-15T15:46:00.742Z,31.08
2022-09-15T15:48:34.010Z,31.42
2022-09-15T15:51:04.809Z,31.74
2022-09-15T15:53:31.654Z,32.21
2022-09-15T15:55:59.737Z,32.17
2022-09-15T15:58:27.244Z,32.24
2022-09-15T16:00:56.705Z,32.39
2022-09-15T16:03:25.054Z,33.62
2022-09-15T16:05:54.651Z,33.84
2022-09-15T16:08:34.345Z,34.10
2022-09-15T16:11:02.885Z,34.87
2022-09-15T16:13:30.529Z,35.79
2022-09-15T16:16:00.264Z,36.60
2022-09-15T16:18:28.178Z,37.18
2022-09-15T16:20:55.292Z,38.38
2022-09-15T16:23:23.548Z,38.49
2022-09-15T16:26:02.654Z,39.94
2022-09-15T16:28:29.939Z,40.00
2022-09-15T16:30:59.550Z,40.34
2022-09-15T16:33:27.045Z,41.05
2022-09-15T16:36:08.433Z,41.61
2022-09-15T16:38:36.345Z,42.13
2022-09-15T16:41:06.126Z,42.72
2022-09-15T16:43:32.788Z,42.50
2022-09-15T16:45:59.507Z,42.91
2022-09-15T16:48:28.474Z,43.71
2022-09-15T16:51:20.619Z,43.24
2022-09-15T16:53:41.967Z,43.43
2022-09-15T16:56:11.651Z,42.86
2022-09-15T16:58:38.916Z,43.90
2022-09-15T17:01:06.664Z,43.97
2022-09-15T17:03:33.742Z,44.79
2022-09-15T17:06:01.994Z,44.89
2022-09-15T17:08:33.341Z,45.39
2022-09-15T17:11:04.801Z,45.25
2022-09-15T17:13:33.793Z,45.53
2022-09-15T17:16:01.584Z,45.33
2022-09-15T17:18:29.185Z,46.32
2022-09-15T17:20:56.324Z,46.43
2022-09-15T17:23:28.222Z,47.08
2022-09-15T17:25:59.087Z,46.89
2022-09-15T17:28:31.751Z,47.62
2022-09-15T17:31:00.671Z,47.80
2022-09-15T17:33:29.362Z,47.64
2022-09-15T17:35:56.493Z,47.76
2022-09-15T17:38:23.670Z,47.91
2022-09-15T17:40:51.611Z,48.55
2022-09-15T17:43:23.911Z,48.65
2022-09-15T17:45:51.783Z,49.06
2022-09-15T17:48:18.808Z,50.19
2022-09-15T17:50:49.302Z,50.14
2022-09-15T17:53:22.627Z,50.40
2022-09-15T17:55:51.209Z,50.83
2022-09-15T17:58:18.677Z,51.02
2022-09-15T18:00:46.171Z,51.64
2022-09-15T18:03:28.052Z,51.08
2022-09-15T18:05:56.918Z,51.49
2022-09-15T18:08:23.641Z,52.10
2022-09-15T18:10:50.735Z,53.01
2022-09-15T18:13:20.336Z,53.40
2022-09-15T18:15:49.059Z,53.87
2022-09-15T18:18:19.821Z,54.49
2022-09-15T18:20:47.120Z,54.84
2022-09-15T18:23:17.259Z,54.60
2022-09-15T18:25:44.709Z,55.20
2022-09-15T18:28:11.443Z,55.90
2022-09-15T18:30:42.969Z,56.32
2022-09-15T18:33:20.501Z,57.33
2022-09-15T18:35:49.691Z,56.86
2022-09-15T18:38:16.720Z,57.40
2022-09-15T18:40:45.556Z,57.03
2022-09-15T18:43:12.686Z,56.92
2022-09-15T18:45:40.617Z,56.84
2022-09-15T18:48:11.958Z,57.20
2022-09-15T18:50:40.894Z,57.26
2022-09-15T18:53:07.654Z,57.46
2022-09-15T18:55:34.332Z,57.51
2022-09-15T18:58:01.446Z,58.09
2022-09-15T19:00:29.098Z,57.90
2022-09-15T19:02:58.305Z,58.37
2022-09-15T19:05:25.555Z,58.31
2022-09-15T19:07:52.403Z,58.83
2022-09-15T19:10:19.559Z,59.10
2022-09-15T19:12:46.251Z,59.53
2022-09-15T19:15:14.008Z,60.43
2022-09-15T19:17:41.864Z,61.00
2022-09-15T19:20:10.687Z,61.17
2022-09-15T19:22:37.827Z,61.41
2022-09-15T19:25:06.354Z,61.76
2022-09-15T19:27:33.261Z,61.74
2022-09-15T19:30:00.241Z,61.69
2022-09-15T19:32:27.798Z,61.87
2022-09-15T19:34:54.438Z,61.97
2022-09-15T19:37:21.899Z,61.84
2022-09-15T19:39:49.544Z,62.27
2022-09-15T19:42:16.770Z,62.68
2022-09-15T19:44:43.525Z,62.34
2022-09-15T19:47:10.695Z,62.77
2022-09-15T19:49:37.763Z,62.56
2022-09-15T19:52:06.524Z,63.07
2022-09-15T19:54:34.550Z,63.21
2022-09-15T19:57:02.157Z,63.10
2022-09-15T19:59:31.678Z,63.34
2022-09-15T20:02:00.021Z,63.32
2022-09-15T20:04:27.754Z,63.50
2022-09-15T20:06:54.665Z,63.33
2022-09-15T20:09:21.364Z,63.49
2022-09-15T20:11:48.023Z,63.58
2022-09-15T20:14:15.017Z,63.25
2022-09-15T20:16:41.811Z,63.12
2022-09-15T20:19:08.821Z,63.94
2022-09-15T20:21:52.538Z,63.94
2022-09-15T20:24:20.075Z,64.42
2022-09-15T20:26:46.799Z,64.93
2022-09-15T20:29:13.876Z,65.69
2022-09-15T20:31:41.062Z,66.93
2022-09-15T20:34:07.839Z,67.73
2022-09-15T20:36:36.818Z,68.97
2022-09-15T20:39:06.303Z,68.37
2022-09-15T20:41:33.077Z,68.20
2022-09-15T20:44:00.236Z,65.81
2022-09-15T20:46:28.879Z,65.13
2022-09-15T20:48:55.445Z,64.78
2022-09-15T20:51:25.668Z,65.03
2022-09-15T20:53:54.608Z,65.20
2022-09-15T20:56:24.971Z,65.37
2022-09-15T20:58:56.979Z,65.34
2022-09-15T21:01:27.083Z,65.89
2022-09-15T21:03:55.419Z,65.52
2022-09-15T21:06:25.514Z,66.22
2022-09-15T21:08:53.522Z,66.67
2022-09-15T21:11:21.159Z,66.85
2022-09-15T21:13:49.417Z,67.10
2022-09-15T21:16:21.807Z,67.58
2022-09-15T21:18:50.074Z,69.26
2022-09-15T21:21:25.902Z,69.83
2022-09-15T21:23:58.651Z,71.10
2022-09-15T21:26:27.186Z,71.45
2022-09-15T21:28:55.768Z,69.01
2022-09-15T21:31:28.218Z,69.12
2022-09-15T21:33:55.719Z,68.88
2022-09-15T21:36:25.231Z,68.83
2022-09-15T21:38:54.167Z,69.24
2022-09-15T21:41:23.608Z,69.89
2022-09-15T21:43:55.360Z,69.77
2022-09-15T21:46:24.786Z,69.89
2022-09-15T21:48:51.845Z,69.63
2022-09-15T21:51:24.191Z,69.48
2022-09-15T21:53:53.038Z,69.55
2022-09-15T21:56:20.726Z,70.29
2022-09-15T21:58:47.551Z,72.63
2022-09-15T22:01:19.912Z,74.48
2022-09-15T22:03:55.397Z,75.97
2022-09-15T22:06:27.718Z,76.33
2022-09-15T22:08:55.399Z,77.12
2022-09-15T22:11:23.308Z,77.45
2022-09-15T22:13:50.066Z,77.11
2022-09-15T22:16:20.132Z,76.72
2022-09-15T22:18:48.014Z,76.54
2022-09-15T22:21:16.058Z,76.23
2022-09-15T22:23:44.267Z,75.51
2022-09-15T22:26:15.607Z,75.60
2022-09-15T22:28:42.665Z,75.81
2022-09-15T22:31:11.842Z,75.81
2022-09-15T22:33:40.963Z,76.01
2022-09-15T22:36:15.457Z,75.60
2022-09-15T22:38:42.359Z,74.43
2022-09-15T22:41:14.507Z,74.12
2022-09-15T22:43:43.075Z,73.96
2022-09-15T22:46:11.235Z,73.42
2022-09-15T22:48:43.042Z,73.24
2022-09-15T22:51:10.536Z,73.70
2022-09-15T22:53:37.148Z,73.89
2022-09-15T22:56:14.414Z,73.16
2022-09-15T22:58:43.903Z,73.67
2022-09-15T23:01:14.378Z,73.89
2022-09-15T23:03:41.766Z,73.82
2022-09-15T23:06:08.587Z,74.18
2022-09-15T23:08:37.318Z,73.71
2022-09-15T23:11:06.762Z,73.32
2022-09-15T23:13:34.033Z,73.75
2022-09-15T23:16:00.960Z,73.30
2022-09-15T23:18:28.100Z,76.60
2022-09-15T23:21:09.209Z,78.63
2022-09-15T23:23:37.587Z,78.00
2022-09-15T23:26:06.152Z,77.72
2022-09-15T23:28:33.433Z,78.40
2022-09-15T23:31:00.349Z,78.12
2022-09-15T23:33:31.514Z,78.41
2022-09-15T23:36:03.154Z,78.76
2022-09-15T23:38:30.095Z,77.78
2022-09-15T23:40:56.860Z,76.69
2022-09-15T23:43:23.550Z,76.05
2022-09-15T23:45:51.303Z,76.14
2022-09-15T23:48:18.041Z,75.93
2022-09-15T23:50:44.907Z,75.52
2022-09-15T23:53:12.319Z,75.74
2022-09-15T23:55:39.133Z,75.72
2022-09-15T23:58:06.165Z,76.52
